Time,TemperatureF,DewpointF,PressureIn,WindDirection,WindDirectionDegrees,WindSpeedMPH,WindSpeedGustMPH,Humidity,HourlyPrecipIn,Conditions,Clouds,dailyrainin,SoftwareType,DateUTC
2013-06-07 00:23:00,76.0,-99.9,-100.00,West,268,4.0,5.0,-999,-99.99,,,-99.99,,2013-06-07 06:23:00,
2013-06-07 01:52:00,70.0,-99.9,-100.00,NW,313,1.0,1.0,-999,-99.99,,,-99.99,,2013-06-07 07:52:00,
2013-06-07 02:02:00,71.0,-99.9,-100.00,NW,322,1.0,2.0,-999,-99.99,,,-99.99,,2013-06-07 08:02:00,
2013-06-07 02:12:00,71.0,-99.9,-100.00,NW,322,1.0,2.0,-999,-99.99,,,-99.99,,2013-06-07 08:12:00,
2013-06-07 02:22:00,71.0,-99.9,-100.00,NW,322,1.0,2.0,-999,-99.99,,,-99.99,,2013-06-07 08:22:00,
2013-06-07 02:32:00,71.0,-99.9,-100.00,NNW,348,2.0,3.0,-999,-99.99,,,-99.99,,2013-06-07 08:32:00,
2013-06-07 02:43:00,71.0,-99.9,-100.00,NNW,348,2.0,3.0,-999,-99.99,,,-99.99,,2013-06-07 08:43:00,
2013-06-07 02:52:00,71.0,-99.9,-100.00,NNW,348,2.0,3.0,-999,-99.99,,,-99.99,,2013-06-07 08:52:00,
2013-06-07 03:02:00,69.0,-99.9,-100.00,NNW,339,2.0,3.0,-999,-99.99,,,-99.99,,2013-06-07 09:02:00,
2013-06-07 03:12:00,69.0,-99.9,-100.00,NNW,339,2.0,3.0,-999,-99.99,,,-99.99,,2013-06-07 09:12:00,
2013-06-07 03:22:00,69.0,-99.9,-100.00,NNW,339,2.0,3.0,-999,-99.99,,,-99.99,,2013-06-07 09:22:00,
2013-06-07 03:33:00,70.0,-99.9,-100.00,NW,310,3.0,5.0,-999,-99.99,,,-99.99,,2013-06-07 09:33:00,
2013-06-07 03:43:00,70.0,-99.9,-100.00,NW,310,3.0,5.0,-999,-99.99,,,-99.99,,2013-06-07 09:43:00,
2013-06-07 03:50:00,72.0,-99.9,-100.00,WNW,292,3.0,5.0,-999,-99.99,,,-99.99,,2013-06-07 09:50:00,
2013-06-07 03:53:00,70.0,-99.9,-100.00,NW,310,3.0,5.0,-999,-99.99,,,-99.99,,2013-06-07 09:53:00,
2013-06-07 04:33:00,72.0,-99.9,-100.00,WNW,292,3.0,5.0,-999,-99.99,,,-99.99,,2013-06-07 10:33:00,
2013-06-07 04:43:00,72.0,-99.9,-100.00,WNW,292,3.0,5.0,-999,-99.99,,,-99.99,,2013-06-07 10:43:00,
2013-06-07 07:10:00,66.0,-99.9,-100.00,West,277,6.0,8.0,-999,-99.99,,,-99.99,,2013-06-07 13:10:00,
2013-06-07 07:33:00,66.0,-99.9,-100.00,WSW,252,4.0,5.0,-999,-99.99,,,-99.99,,2013-06-07 13:33:00,
2013-06-07 07:43:00,66.0,-99.9,-100.00,WSW,252,4.0,5.0,-999,-99.99,,,-99.99,,2013-06-07 13:43:00,
2013-06-07 07:52:00,66.0,-99.9,-100.00,West,277,6.0,8.0,-999,-99.99,,,-99.99,,2013-06-07 13:52:00,
2013-06-07 08:03:00,66.0,-99.9,-100.00,West,277,6.0,8.0,-999,-99.99,,,-99.99,,2013-06-07 14:03:00,
2013-06-07 08:50:00,72.0,-99.9,-100.00,West,281,4.0,5.0,-999,-99.99,,,-99.99,,2013-06-07 14:50:00,
2013-06-07 09:30:00,75.0,-99.9,-100.00,West,276,5.0,6.0,-999,-99.99,,,-99.99,,2013-06-07 15:30:00,
2013-06-07 09:33:00,72.0,-99.9,-100.00,West,281,4.0,5.0,-999,-99.99,,,-99.99,,2013-06-07 15:33:00,
2013-06-07 09:43:00,72.0,-99.9,-100.00,West,281,4.0,5.0,-999,-99.99,,,-99.99,,2013-06-07 15:43:00,
2013-06-07 10:22:00,75.0,-99.9,-100.00,West,276,5.0,6.0,-999,-99.99,,,-99.99,,2013-06-07 16:22:00,
2013-06-07 11:00:00,80.0,-99.9,-100.00,West,273,4.0,5.0,-999,-99.99,,,-99.99,,2013-06-07 17:00:00,
2013-06-07 11:35:00,80.0,-99.9,-100.00,WNW,289,4.0,6.0,-999,-99.99,,,-99.99,,2013-06-07 17:35:00,
2013-06-07 11:53:00,80.0,-99.9,-100.00,West,273,4.0,5.0,-999,-99.99,,,-99.99,,2013-06-07 17:53:00,
2013-06-07 12:30:00,80.0,-99.9,-100.00,WNW,289,4.0,6.0,-999,-99.99,,,-99.99,,2013-06-07 18:30:00,
2013-06-07 12:55:00,84.0,-99.9,-100.00,NW,316,2.0,7.0,-999,-99.99,,,-99.99,,2013-06-07 18:55:00,
2013-06-07 13:20:00,86.0,-99.9,-100.00,NNW,327,4.0,6.0,-999,-99.99,,,-99.99,,2013-06-07 19:20:00,
2013-06-07 13:52:00,84.0,-99.9,-100.00,NW,316,2.0,7.0,-999,-99.99,,,-99.99,,2013-06-07 19:52:00,
2013-06-07 14:09:00,86.0,-99.9,-100.00,NNW,327,4.0,6.0,-999,-99.99,,,-99.99,,2013-06-07 20:09:00,
2013-06-07 14:18:00,86.0,-99.9,-100.00,NNW,327,4.0,6.0,-999,-99.99,,,-99.99,,2013-06-07 20:18:00,
2013-06-07 15:05:00,88.0,-99.9,-100.00,East,84,0.0,5.0,-999,-99.99,,,-99.99,,2013-06-07 21:05:00,
2013-06-07 18:32:00,70.0,-99.9,-100.00,SSE,154,5.0,7.0,-999,-99.99,,,-99.99,,2013-06-08 00:32:00,
2013-06-07 19:55:00,73.0,-99.9,-100.00,NE,38,4.0,5.0,-999,-99.99,,,-99.99,,2013-06-08 01:55:00,
2013-06-07 20:20:00,73.0,-99.9,-100.00,NW,307,4.0,5.0,-999,-99.99,,,-99.99,,2013-06-08 02:20:00,
2013-06-07 20:32:00,74.0,-99.9,-100.00,NE,39,5.0,7.0,-999,-99.99,,,-99.99,,2013-06-08 02:32:00,
2013-06-07 20:37:00,73.0,-99.9,-100.00,NE,38,4.0,5.0,-999,-99.99,,,-99.99,,2013-06-08 02:37:00,
2013-06-07 20:49:00,73.0,-99.9,-100.00,NE,38,4.0,5.0,-999,-99.99,,,-99.99,,2013-06-08 02:49:00,
2013-06-07 21:14:00,73.0,-99.9,-100.00,NW,307,4.0,5.0,-999,-99.99,,,-99.99,,2013-06-08 03:14:00,
2013-06-07 21:19:00,73.0,-99.9,-100.00,NW,307,4.0,5.0,-999,-99.99,,,-99.99,,2013-06-08 03:19:00,
2013-06-07 21:40:00,69.0,-99.9,-100.00,NE,45,1.0,1.0,-999,-99.99,,,-99.99,,2013-06-08 03:40:00,
2013-06-07 22:23:00,69.0,-99.9,-100.00,NE,45,1.0,1.0,-999,-99.99,,,-99.99,,2013-06-08 04:23:00,
2013-06-07 22:33:00,69.0,-99.9,-100.00,NE,45,1.0,1.0,-999,-99.99,,,-99.99,,2013-06-08 04:33:00,
2013-06-07 22:53:00,65.0,-99.9,-100.00,WSW,250,2.0,4.0,-999,-99.99,,,-99.99,,2013-06-08 04:53:00,
2013-06-07 23:32:00,65.0,-99.9,-100.00,West,272,2.0,4.0,-999,-99.99,,,-99.99,,2013-06-08 05:32:00,
2013-06-07 23:42:00,65.0,-99.9,-100.00,West,272,2.0,4.0,-999,-99.99,,,-99.99,,2013-06-08 05:42:00,
2013-06-07 23:53:00,65.0,-99.9,-100.00,West,272,2.0,4.0,-999,-99.99,,,-99.99,,2013-06-08 05:53:00,